Time;durP1;ratioP1;P1;durP2;ratioP2;P2;SDS_P1;SDS_P2;PMS_P1;PMS_P2;Temp;Humidity;BMP_temperature;BMP_pressure;BME280_temperature;BME280_humidity;BME280_pressure;Samples;Min_cycle;Max_cycle;Signal;HPM_P1;HPM_P2
2023/09/20 00:00:53;;;;;;;;;;;18.80;78.00;;;;;;5045313;28;20177;-76
2023/09/20 00:03:20;;;;;;;;;;;18.80;78.20;;;;;;5059888;28;20669;-78
2023/09/20 00:05:47;;;;;;;;;;;18.70;78.10;;;;;;5061916;28;20094;-78
2023/09/20 00:08:14;;;;;;;;;;;18.70;78.10;;;;;;5060019;28;20105;-76
2023/09/20 00:10:41;;;;;;;;;;;18.70;78.10;;;;;;5063531;28;20519;-77
2023/09/20 00:13:09;;;;;;;;;;;18.70;78.20;;;;;;5062308;28;20113;-78
2023/09/20 00:15:39;;;;;;;;;;;18.60;78.10;;;;;;5047145;28;25082;-78
2023/09/20 00:18:07;;;;;;;;;;;18.60;78.20;;;;;;5062222;28;20768;-78
2023/09/20 00:20:35;;;;;;;;;;;18.60;78.30;;;;;;5046704;28;25112;-77
2023/09/20 00:23:04;;;;;;;;;;;18.60;78.40;;;;;;5066429;28;20547;-78
2023/09/20 00:25:30;;;;;;;;;;;18.60;78.30;;;;;;5047857;28;20103;-77
2023/09/20 00:27:57;;;;;;;;;;;18.60;78.30;;;;;;5063390;28;20129;-78
2023/09/20 00:30:24;;;;;;;;;;;18.60;78.30;;;;;;5066112;28;20133;-78
2023/09/20 00:32:50;;;;;;;;;;;18.50;78.30;;;;;;5065630;28;19976;-77
2023/09/20 00:35:18;;;;;;;;;;;18.50;78.40;;;;;;5049808;28;20154;-78
2023/09/20 00:37:46;;;;;;;;;;;18.50;78.40;;;;;;5066390;28;20563;-78
2023/09/20 00:40:18;;;;;;;;;;;18.50;78.40;;;;;;5066260;28;19967;-78
2023/09/20 00:42:46;;;;;;;;;;;18.50;78.40;;;;;;5064817;28;20149;-78
2023/09/20 00:45:14;;;;;;;;;;;18.40;78.40;;;;;;5066243;28;19957;-78
2023/09/20 00:47:42;;;;;;;;;;;18.40;78.40;;;;;;5061644;28;19974;-78
2023/09/20 00:50:10;;;;;;;;;;;18.40;78.40;;;;;;5065342;28;20113;-78
2023/09/20 00:52:39;;;;;;;;;;;18.30;78.40;;;;;;5061743;28;20167;-77
2023/09/20 00:55:07;;;;;;;;;;;18.30;78.30;;;;;;5062202;28;19972;-78
2023/09/20 00:57:34;;;;;;;;;;;18.30;78.30;;;;;;5050362;28;20115;-77
2023/09/20 01:00:13;;;;;;;;;;;18.30;78.40;;;;;;5059884;28;20136;-77
2023/09/20 01:02:40;;;;;;;;;;;18.30;78.40;;;;;;5062689;28;19962;-77
2023/09/20 01:05:08;;;;;;;;;;;18.30;78.50;;;;;;5064184;28;20135;-76
2023/09/20 01:07:35;;;;;;;;;;;18.20;78.40;;;;;;5064373;28;20130;-78
2023/09/20 01:10:05;;;;;;;;;;;18.20;78.50;;;;;;5059774;28;20210;-77
2023/09/20 01:12:32;;;;;;;;;;;18.20;78.50;;;;;;5062994;28;20098;-77
2023/09/20 01:14:59;;;;;;;;;;;18.20;78.50;;;;;;5066710;28;20126;-77
2023/09/20 01:17:26;;;;;;;;;;;18.20;78.60;;;;;;5079977;28;20082;-77
2023/09/20 01:19:52;;;;;;;;;;;18.20;78.70;;;;;;5058267;28;20140;-77
2023/09/20 01:22:21;;;;;;;;;;;18.10;78.60;;;;;;5044517;28;20116;-77
2023/09/20 01:24:48;;;;;;;;;;;18.10;78.60;;;;;;5066127;28;20094;-77
2023/09/20 01:27:14;;;;;;;;;;;18.10;78.70;;;;;;5062845;28;25061;-77
2023/09/20 01:32:45;;;;;;;;;;;18.10;78.80;;;;;;5057680;28;20185;-76
2023/09/20 01:35:16;;;;;;;;;;;18.10;78.90;;;;;;5063604;28;19958;-78
2023/09/20 01:37:45;;;;;;;;;;;18.00;78.90;;;;;;5064841;28;19970;-78
2023/09/20 01:40:15;;;;;;;;;;;18.00;78.90;;;;;;5060851;28;20105;-78
2023/09/20 01:42:44;;;;;;;;;;;18.00;78.90;;;;;;5064390;28;20103;-76
2023/09/20 01:45:16;;;;;;;;;;;18.00;79.00;;;;;;5042436;28;20635;-78
2023/09/20 01:47:44;;;;;;;;;;;18.00;79.00;;;;;;5065318;28;19969;-76
2023/09/20 01:50:11;;;;;;;;;;;17.90;79.20;;;;;;5062715;28;20119;-76
2023/09/20 01:52:38;;;;;;;;;;;17.90;79.10;;;;;;5048641;28;25070;-76
2023/09/20 01:55:11;;;;;;;;;;;17.90;79.10;;;;;;5046494;28;20069;-76
2023/09/20 01:57:38;;;;;;;;;;;17.90;79.10;;;;;;5062438;28;20110;-77
2023/09/20 02:00:16;;;;;;;;;;;17.90;79.20;;;;;;5045738;28;20620;-76
2023/09/20 02:02:44;;;;;;;;;;;17.90;79.20;;;;;;5062530;28;19957;-76
2023/09/20 02:05:17;;;;;;;;;;;17.80;79.10;;;;;;5045789;28;20174;-77
2023/09/20 02:07:44;;;;;;;;;;;17.80;79.10;;;;;;5049024;28;19944;-77
2023/09/20 02:10:13;;;;;;;;;;;17.80;79.20;;;;;;5023534;28;20091;-78
2023/09/20 02:12:45;;;;;;;;;;;17.80;79.30;;;;;;5065247;28;20063;-78
2023/09/20 02:15:12;;;;;;;;;;;17.80;79.40;;;;;;5063369;28;20109;-78
2023/09/20 02:17:39;;;;;;;;;;;17.70;79.30;;;;;;5064096;28;20721;-78
2023/09/20 02:20:09;;;;;;;;;;;17.70;79.40;;;;;;5036569;28;20444;-76
2023/09/20 02:22:38;;;;;;;;;;;17.70;79.40;;;;;;5053964;28;20609;-77
2023/09/20 02:25:10;;;;;;;;;;;17.70;78.40;;;;;;5051375;28;20109;-79
2023/09/20 02:27:43;;;;;;;;;;;17.60;79.40;;;;;;5071897;28;20134;-77
2023/09/20 02:30:12;;;;;;;;;;;17.50;79.50;;;;;;5052751;28;20103;-78
2023/09/20 02:32:39;;;;;;;;;;;17.50;79.90;;;;;;5065648;28;20135;-78
2023/09/20 02:35:07;;;;;;;;;;;17.50;80.00;;;;;;5035500;28;20186;-78
2023/09/20 02:37:34;;;;;;;;;;;17.50;80.00;;;;;;5052265;28;25158;-78
2023/09/20 02:40:03;;;;;;;;;;;17.50;80.00;;;;;;5052879;28;20017;-76
2023/09/20 02:42:31;;;;;;;;;;;17.40;79.90;;;;;;5054288;28;25071;-76
2023/09/20 02:44:59;;;;;;;;;;;17.50;80.00;;;;;;5035627;28;19998;-78
2023/09/20 02:47:26;;;;;;;;;;;17.50;80.00;;;;;;5052002;28;25073;-76
2023/09/20 02:49:53;;;;;;;;;;;17.40;80.00;;;;;;5054198;28;20021;-78
2023/09/20 02:52:20;;;;;;;;;;;17.50;80.00;;;;;;5054032;28;25066;-77
2023/09/20 02:54:47;;;;;;;;;;;17.50;79.90;;;;;;5038067;28;19998;-77
2023/09/20 02:57:15;;;;;;;;;;;17.50;79.90;;;;;;5054508;28;20168;-75
2023/09/20 02:59:42;;;;;;;;;;;17.40;79.80;;;;;;5051767;28;25062;-77
2023/09/20 03:02:10;;;;;;;;;;;17.40;79.80;;;;;;5051539;28;20295;-77
2023/09/20 03:04:37;;;;;;;;;;;17.40;79.90;;;;;;5049145;28;20130;-77
2023/09/20 03:07:04;;;;;;;;;;;17.40;80.00;;;;;;5065040;28;19990;-76
2023/09/20 03:09:32;;;;;;;;;;;17.40;80.00;;;;;;5050532;28;25090;-77
2023/09/20 03:11:59;;;;;;;;;;;17.40;80.00;;;;;;5048460;28;20072;-77
2023/09/20 03:14:25;;;;;;;;;;;17.40;80.00;;;;;;5048811;28;20128;-75
2023/09/20 03:16:52;;;;;;;;;;;17.40;80.00;;;;;;5032685;28;20247;-78
2023/09/20 03:19:22;;;;;;;;;;;17.40;80.00;;;;;;5042556;28;20133;-76
2023/09/20 03:21:48;;;;;;;;;;;17.30;80.10;;;;;;5047348;28;20234;-77
2023/09/20 03:24:15;;;;;;;;;;;17.30;80.10;;;;;;5045128;28;19988;-76
2023/09/20 03:26:42;;;;;;;;;;;17.30;80.10;;;;;;5047786;28;21471;-76
2023/09/20 03:29:08;;;;;;;;;;;17.30;80.30;;;;;;5026920;28;20148;-76
2023/09/20 03:31:36;;;;;;;;;;;17.30;80.30;;;;;;5045456;28;20169;-76
2023/09/20 03:34:05;;;;;;;;;;;17.30;80.30;;;;;;5066303;28;20006;-76
2023/09/20 03:36:34;;;;;;;;;;;17.30;80.30;;;;;;5053348;28;20109;-77
2023/09/20 03:39:00;;;;;;;;;;;17.30;80.40;;;;;;5062328;28;20172;-77
2023/09/20 03:41:27;;;;;;;;;;;17.20;80.30;;;;;;5066534;28;25084;-77
2023/09/20 03:43:54;;;;;;;;;;;17.20;80.40;;;;;;5066023;28;20101;-77
2023/09/20 03:46:20;;;;;;;;;;;17.20;80.40;;;;;;5061694;28;20142;-77
2023/09/20 03:48:47;;;;;;;;;;;17.20;80.50;;;;;;5061707;28;20822;-78
2023/09/20 03:51:15;;;;;;;;;;;17.10;80.50;;;;;;5056465;28;25085;-76
2023/09/20 03:53:43;;;;;;;;;;;17.10;80.60;;;;;;5075174;28;19986;-77
2023/09/20 03:56:11;;;;;;;;;;;17.10;80.60;;;;;;5077590;28;25078;-77
2023/09/20 03:58:38;;;;;;;;;;;17.10;80.60;;;;;;5079138;28;20178;-78
2023/09/20 04:01:05;;;;;;;;;;;17.10;80.70;;;;;;5054344;28;20149;-77
2023/09/20 04:03:34;;;;;;;;;;;17.10;80.80;;;;;;5069994;28;20191;-77
2023/09/20 04:06:01;;;;;;;;;;;17.10;80.90;;;;;;5073415;28;19988;-77
2023/09/20 04:08:28;;;;;;;;;;;17.10;80.90;;;;;;5057312;28;25077;-78
2023/09/20 04:10:57;;;;;;;;;;;17.00;80.90;;;;;;5080555;28;19999;-78
2023/09/20 04:13:24;;;;;;;;;;;17.00;80.90;;;;;;5076758;28;20182;-79
2023/09/20 04:15:51;;;;;;;;;;;17.00;81.10;;;;;;5072526;28;19983;-76
2023/09/20 04:18:17;;;;;;;;;;;17.00;81.10;;;;;;5056007;28;25098;-75
2023/09/20 04:20:45;;;;;;;;;;;17.00;81.10;;;;;;5076378;28;19981;-76
2023/09/20 04:23:12;;;;;;;;;;;17.00;81.10;;;;;;5092596;28;20160;-76
2023/09/20 04:25:39;;;;;;;;;;;17.00;82.00;;;;;;5075623;28;20205;-78
2023/09/20 04:28:09;;;;;;;;;;;17.00;81.10;;;;;;5073894;28;25161;-77
2023/09/20 04:30:38;;;;;;;;;;;16.90;81.20;;;;;;5059496;28;19969;-78
2023/09/20 04:33:06;;;;;;;;;;;16.90;81.20;;;;;;5073737;28;20117;-79
2023/09/20 04:35:34;;;;;;;;;;;16.90;81.20;;;;;;5071763;28;20689;-77
2023/09/20 04:38:00;;;;;;;;;;;16.90;81.20;;;;;;5062438;28;20100;-77
2023/09/20 04:40:27;;;;;;;;;;;16.90;81.30;;;;;;5056467;28;20101;-78
2023/09/20 04:42:54;;;;;;;;;;;16.90;81.30;;;;;;5053879;28;20124;-79
2023/09/20 04:45:22;;;;;;;;;;;16.80;81.30;;;;;;5073293;28;20185;-78
2023/09/20 04:47:49;;;;;;;;;;;16.80;81.30;;;;;;5070406;28;20094;-77
2023/09/20 04:50:16;;;;;;;;;;;16.80;81.40;;;;;;5069063;28;25061;-76
2023/09/20 04:52:45;;;;;;;;;;;16.80;81.50;;;;;;5071206;28;19973;-77
2023/09/20 04:55:16;;;;;;;;;;;16.80;81.50;;;;;;5073617;28;25062;-78
2023/09/20 04:57:45;;;;;;;;;;;16.80;81.60;;;;;;5088678;28;20823;-78
2023/09/20 05:00:15;;;;;;;;;;;16.80;81.60;;;;;;5071463;28;20187;-78
2023/09/20 05:02:45;;;;;;;;;;;16.80;81.70;;;;;;5072772;28;20678;-79
2023/09/20 05:05:12;;;;;;;;;;;16.80;81.70;;;;;;5071578;28;25086;-77
2023/09/20 05:07:41;;;;;;;;;;;16.80;81.80;;;;;;5055386;28;19990;-78
2023/09/20 05:10:08;;;;;;;;;;;16.70;81.70;;;;;;5071277;28;20148;-78
2023/09/20 05:12:35;;;;;;;;;;;16.70;81.70;;;;;;5071401;28;19969;-78
2023/09/20 05:15:03;;;;;;;;;;;16.70;81.70;;;;;;5068898;28;20119;-78
2023/09/20 05:17:29;;;;;;;;;;;16.70;81.80;;;;;;5070117;28;19967;-78
2023/09/20 05:19:58;;;;;;;;;;;16.70;81.70;;;;;;5052993;28;25103;-80
2023/09/20 05:22:25;;;;;;;;;;;16.60;81.70;;;;;;5071659;28;19989;-78
2023/09/20 05:24:51;;;;;;;;;;;16.60;81.60;;;;;;5069333;28;20104;-77
2023/09/20 05:27:17;;;;;;;;;;;16.60;81.70;;;;;;5065402;28;20088;-79
2023/09/20 05:29:43;;;;;;;;;;;16.60;81.90;;;;;;5042809;28;20133;-77
2023/09/20 05:32:10;;;;;;;;;;;16.60;81.90;;;;;;4990079;28;25054;-77
2023/09/20 05:34:39;;;;;;;;;;;16.60;82.00;;;;;;4991675;28;19972;-77
2023/09/20 05:37:07;;;;;;;;;;;16.60;82.00;;;;;;4999715;28;20107;-78
2023/09/20 05:39:34;;;;;;;;;;;16.60;82.00;;;;;;4989217;28;20129;-78
2023/09/20 05:42:01;;;;;;;;;;;16.60;82.00;;;;;;5013292;28;19978;-78
2023/09/20 05:44:30;;;;;;;;;;;16.50;82.00;;;;;;4992721;28;20124;-77
2023/09/20 05:46:57;;;;;;;;;;;16.50;82.10;;;;;;5003105;28;20087;-79
2023/09/20 05:49:23;;;;;;;;;;;16.50;82.10;;;;;;5009737;28;20193;-81
2023/09/20 05:51:52;;;;;;;;;;;16.50;82.10;;;;;;4985482;28;20121;-80
2023/09/20 05:54:21;;;;;;;;;;;16.50;82.20;;;;;;4999581;28;19968;-79
2023/09/20 05:56:48;;;;;;;;;;;16.50;82.20;;;;;;4983645;28;20086;-80
2023/09/20 05:59:16;;;;;;;;;;;16.50;82.20;;;;;;5057018;28;25086;-80
2023/09/20 06:01:42;;;;;;;;;;;16.50;82.20;;;;;;5077280;28;19990;-78
2023/09/20 06:04:09;;;;;;;;;;;16.40;82.40;;;;;;5069279;28;20805;-80
2023/09/20 06:06:37;;;;;;;;;;;16.50;82.40;;;;;;5079595;28;20127;-80
2023/09/20 06:09:04;;;;;;;;;;;16.40;82.40;;;;;;5051323;28;20127;-80
2023/09/20 06:11:32;;;;;;;;;;;16.50;82.50;;;;;;5061594;28;20185;-79
2023/09/20 06:13:59;;;;;;;;;;;16.50;82.60;;;;;;4966500;28;20178;-79
2023/09/20 06:16:26;;;;;;;;;;;16.40;82.60;;;;;;5000104;28;20086;-80
2023/09/20 06:18:53;;;;;;;;;;;16.40;82.70;;;;;;5061650;28;19971;-79
2023/09/20 06:21:20;;;;;;;;;;;16.40;82.70;;;;;;5046539;28;20011;-80
2023/09/20 06:23:46;;;;;;;;;;;16.40;82.80;;;;;;5070229;28;25128;-78
2023/09/20 06:26:13;;;;;;;;;;;16.40;82.80;;;;;;5046749;28;20000;-79
2023/09/20 06:28:42;;;;;;;;;;;16.40;82.90;;;;;;5070422;28;25067;-79
2023/09/20 06:31:09;;;;;;;;;;;16.40;83.00;;;;;;5066805;28;20068;-80
2023/09/20 06:33:36;;;;;;;;;;;16.40;83.10;;;;;;5067821;28;25078;-79
2023/09/20 06:36:04;;;;;;;;;;;16.40;83.10;;;;;;5050656;28;19970;-80
2023/09/20 06:38:34;;;;;;;;;;;16.40;83.10;;;;;;5069032;28;25110;-79
2023/09/20 06:41:01;;;;;;;;;;;16.40;83.20;;;;;;5063211;28;19957;-80
2023/09/20 06:43:28;;;;;;;;;;;16.40;83.20;;;;;;5049672;28;20698;-81
2023/09/20 06:45:57;;;;;;;;;;;16.40;83.30;;;;;;5061900;28;20156;-82
2023/09/20 06:48:25;;;;;;;;;;;16.40;83.30;;;;;;5073413;28;20462;-82
2023/09/20 06:50:52;;;;;;;;;;;16.40;83.30;;;;;;5070091;28;25081;-82
2023/09/20 06:53:19;;;;;;;;;;;16.40;83.30;;;;;;5061322;28;20049;-81
2023/09/20 06:55:47;;;;;;;;;;;16.40;83.40;;;;;;5065068;28;25089;-81
2023/09/20 06:58:14;;;;;;;;;;;16.40;83.50;;;;;;5065820;28;19975;-82
2023/09/20 07:00:41;;;;;;;;;;;16.40;83.50;;;;;;5061536;28;20893;-80
2023/09/20 07:03:10;;;;;;;;;;;16.40;83.50;;;;;;5060570;28;20144;-83
2023/09/20 07:05:38;;;;;;;;;;;16.40;83.60;;;;;;5051027;28;25086;-81
2023/09/20 07:08:10;;;;;;;;;;;16.40;83.50;;;;;;5066593;28;20879;-83
2023/09/20 07:10:41;;;;;;;;;;;16.40;83.50;;;;;;5068257;28;25055;-81
2023/09/20 07:13:10;;;;;;;;;;;16.40;83.60;;;;;;5067535;28;20024;-80
2023/09/20 07:15:37;;;;;;;;;;;16.40;83.60;;;;;;5047535;28;20173;-81
2023/09/20 07:18:11;;;;;;;;;;;16.40;83.60;;;;;;5044414;28;20146;-81
2023/09/20 07:20:40;;;;;;;;;;;16.40;83.60;;;;;;5068347;28;20118;-81
2023/09/20 07:23:09;;;;;;;;;;;16.40;83.70;;;;;;5068706;28;20912;-81
2023/09/20 07:25:36;;;;;;;;;;;16.40;83.70;;;;;;5063933;28;20126;-81
2023/09/20 07:28:04;;;;;;;;;;;16.40;83.70;;;;;;5066834;28;25059;-81
2023/09/20 07:30:34;;;;;;;;;;;16.50;83.70;;;;;;5065714;28;20016;-81
2023/09/20 07:33:02;;;;;;;;;;;16.50;83.80;;;;;;5069578;28;20485;-79
2023/09/20 07:35:37;;;;;;;;;;;16.40;83.70;;;;;;5051752;28;20124;-81
2023/09/20 07:38:12;;;;;;;;;;;16.50;83.80;;;;;;5083757;28;20086;-80
2023/09/20 07:40:40;;;;;;;;;;;16.50;83.80;;;;;;5070885;28;20157;-80
2023/09/20 07:43:07;;;;;;;;;;;16.40;83.80;;;;;;5067215;28;20025;-82
2023/09/20 07:45:37;;;;;;;;;;;16.50;83.80;;;;;;5034694;28;20172;-82
2023/09/20 07:48:10;;;;;;;;;;;16.50;83.70;;;;;;5063565;28;20250;-82
2023/09/20 07:50:40;;;;;;;;;;;16.50;83.60;;;;;;5067861;28;20085;-81
2023/09/20 07:53:11;;;;;;;;;;;16.50;83.50;;;;;;5066952;28;20962;-83
2023/09/20 07:55:45;;;;;;;;;;;16.50;83.50;;;;;;5062045;28;20105;-81
2023/09/20 07:58:12;;;;;;;;;;;16.50;83.50;;;;;;5066594;28;19965;-83
2023/09/20 08:00:44;;;;;;;;;;;16.60;83.60;;;;;;5052993;28;20391;-81
2023/09/20 08:03:10;;;;;;;;;;;16.60;83.40;;;;;;5067082;28;20401;-81
2023/09/20 08:05:38;;;;;;;;;;;16.60;83.50;;;;;;5075532;28;19986;-82
2023/09/20 08:08:06;;;;;;;;;;;16.70;83.50;;;;;;5050074;28;20125;-82
2023/09/20 08:10:34;;;;;;;;;;;16.70;83.30;;;;;;5080718;28;20593;-82
2023/09/20 08:13:01;;;;;;;;;;;16.70;83.10;;;;;;5059878;28;25086;-83
2023/09/20 08:15:28;;;;;;;;;;;16.70;83.10;;;;;;5083201;28;20102;-81
2023/09/20 08:20:40;;;;;;;;;;;16.80;82.80;;;;;;5070567;28;20017;-81
2023/09/20 09:01:38;;;;;;;;;;;17.40;81.90;;;;;;5066650;28;20015;-81
2023/09/20 09:04:06;;;;;;;;;;;17.50;81.90;;;;;;5076711;28;20177;-83
2023/09/20 09:06:32;;;;;;;;;;;17.50;81.70;;;;;;5067529;28;20110;-81
2023/09/20 09:08:59;;;;;;;;;;;17.50;81.50;;;;;;5071824;28;20109;-81
2023/09/20 09:11:26;;;;;;;;;;;17.60;81.40;;;;;;5063679;28;20101;-81
2023/09/20 09:13:54;;;;;;;;;;;17.60;81.30;;;;;;5067112;28;19978;-83
2023/09/20 09:16:22;;;;;;;;;;;17.60;81.20;;;;;;5068396;28;25058;-81
2023/09/20 09:18:49;;;;;;;;;;;17.70;81.10;;;;;;5064100;28;20689;-80
2023/09/20 09:21:17;;;;;;;;;;;17.70;80.90;;;;;;5071106;28;20248;-80
2023/09/20 09:23:46;;;;;;;;;;;17.80;80.80;;;;;;5070647;28;19969;-81
2023/09/20 09:26:13;;;;;;;;;;;17.80;80.60;;;;;;5068847;28;20102;-83
2023/09/20 09:28:41;;;;;;;;;;;17.90;80.40;;;;;;5069477;28;19971;-79
2023/09/20 09:31:09;;;;;;;;;;;18.00;80.40;;;;;;5047688;28;20141;-81
2023/09/20 09:33:36;;;;;;;;;;;18.10;80.10;;;;;;5044696;28;19967;-81
2023/09/20 09:36:05;;;;;;;;;;;18.10;79.90;;;;;;5069836;28;20549;-80
2023/09/20 09:38:34;;;;;;;;;;;18.20;79.70;;;;;;5067271;28;20093;-83
2023/09/20 09:41:02;;;;;;;;;;;18.30;79.50;;;;;;5073778;28;20162;-79
2023/09/20 09:43:29;;;;;;;;;;;18.40;79.20;;;;;;5068095;28;20614;-79
2023/09/20 09:46:04;;;;;;;;;;;18.40;79.00;;;;;;5064366;28;20015;-79
2023/09/20 09:48:33;;;;;;;;;;;18.50;78.60;;;;;;5062548;28;20094;-80
2023/09/20 09:51:01;;;;;;;;;;;18.60;78.30;;;;;;5046419;28;20867;-80
2023/09/20 09:53:29;;;;;;;;;;;18.70;77.90;;;;;;5044089;28;20027;-79
2023/09/20 09:55:56;;;;;;;;;;;18.70;77.50;;;;;;5064902;28;20969;-80
2023/09/20 09:58:23;;;;;;;;;;;18.80;77.50;;;;;;5056161;28;19973;-80
2023/09/20 10:00:53;;;;;;;;;;;18.90;77.50;;;;;;5039355;28;20109;-81
2023/09/20 10:03:27;;;;;;;;;;;18.90;77.00;;;;;;5053808;28;20944;-80
2023/09/20 10:05:58;;;;;;;;;;;19.00;76.90;;;;;;5028183;28;19986;-81
2023/09/20 10:08:29;;;;;;;;;;;19.10;76.60;;;;;;5015631;28;20251;-81
2023/09/20 10:11:00;;;;;;;;;;;19.10;76.60;;;;;;4990341;28;20180;-81
2023/09/20 10:13:29;;;;;;;;;;;19.20;76.40;;;;;;4975335;28;20108;-80
2023/09/20 10:15:57;;;;;;;;;;;19.30;76.00;;;;;;4981418;28;19973;-80
2023/09/20 10:18:24;;;;;;;;;;;19.30;75.40;;;;;;4958999;28;20122;-81
2023/09/20 10:21:04;;;;;;;;;;;19.40;75.00;;;;;;5005145;28;20112;-82
2023/09/20 10:23:34;;;;;;;;;;;19.50;74.90;;;;;;5020781;28;19970;-81
2023/09/20 10:26:01;;;;;;;;;;;19.60;74.50;;;;;;4984613;28;20523;-81
2023/09/20 10:28:38;;;;;;;;;;;19.70;74.00;;;;;;4985289;28;20206;-81
2023/09/20 10:31:06;;;;;;;;;;;19.80;74.30;;;;;;4999554;28;20843;-81
2023/09/20 10:33:45;;;;;;;;;;;19.80;73.90;;;;;;5008498;28;25174;-82
2023/09/20 10:36:14;;;;;;;;;;;19.90;73.30;;;;;;5004769;28;20062;-80
2023/09/20 10:38:44;;;;;;;;;;;20.00;73.40;;;;;;4996357;28;19991;-78
2023/09/20 10:41:12;;;;;;;;;;;20.00;73.20;;;;;;4993057;28;25070;-80
2023/09/20 10:43:48;;;;;;;;;;;20.10;72.80;;;;;;5010573;28;20013;-81
2023/09/20 10:46:17;;;;;;;;;;;20.10;73.00;;;;;;5005268;28;20109;-79
2023/09/20 10:48:48;;;;;;;;;;;20.30;72.30;;;;;;5008709;28;20151;-81
2023/09/20 10:51:36;;;;;;;;;;;20.30;72.30;;;;;;5009727;28;19991;-80
2023/09/20 10:54:10;;;;;;;;;;;20.40;71.90;;;;;;5021164;28;20466;-82
2023/09/20 10:56:55;;;;;;;;;;;20.50;71.40;;;;;;4988175;28;22069;-79
2023/09/20 10:59:23;;;;;;;;;;;20.60;71.00;;;;;;5006784;28;25082;-80
2023/09/20 11:01:50;;;;;;;;;;;20.70;71.30;;;;;;4991693;28;20071;-79
2023/09/20 11:04:18;;;;;;;;;;;20.70;71.20;;;;;;5025467;28;19982;-81
2023/09/20 11:06:46;;;;;;;;;;;20.70;71.10;;;;;;5015592;28;20113;-78
2023/09/20 11:09:14;;;;;;;;;;;20.80;71.20;;;;;;4999753;28;19958;-82
2023/09/20 11:11:42;;;;;;;;;;;20.90;70.20;;;;;;5015245;28;20538;-81
2023/09/20 11:14:08;;;;;;;;;;;21.00;70.10;;;;;;5018442;28;20093;-81
2023/09/20 11:16:36;;;;;;;;;;;21.00;70.00;;;;;;4997764;28;20157;-82
2023/09/20 11:19:03;;;;;;;;;;;21.10;70.10;;;;;;5017591;28;20166;-82
2023/09/20 11:21:30;;;;;;;;;;;21.20;70.00;;;;;;5018258;28;20566;-80
2023/09/20 11:23:57;;;;;;;;;;;21.30;70.00;;;;;;5024135;28;20094;-80
2023/09/20 11:26:28;;;;;;;;;;;21.30;69.50;;;;;;5019266;28;20769;-80
2023/09/20 11:28:55;;;;;;;;;;;21.40;68.80;;;;;;5023576;28;25066;-80
2023/09/20 11:31:27;;;;;;;;;;;21.40;68.80;;;;;;5022494;28;25129;-79
2023/09/20 11:33:58;;;;;;;;;;;21.50;68.80;;;;;;5023273;28;20186;-82
2023/09/20 11:36:24;;;;;;;;;;;21.60;68.10;;;;;;5024031;28;20308;-81
2023/09/20 11:38:51;;;;;;;;;;;21.60;68.30;;;;;;5007876;28;20204;-81
2023/09/20 11:41:18;;;;;;;;;;;21.70;68.50;;;;;;5011264;28;20258;-81
2023/09/20 11:43:47;;;;;;;;;;;21.80;67.80;;;;;;4988379;28;25075;-80
2023/09/20 11:46:15;;;;;;;;;;;21.80;67.20;;;;;;5021277;28;25058;-79
2023/09/20 11:48:43;;;;;;;;;;;21.90;67.40;;;;;;5023883;28;25076;-81
2023/09/20 11:51:11;;;;;;;;;;;22.00;66.90;;;;;;5031044;28;25150;-79
2023/09/20 11:53:38;;;;;;;;;;;22.00;66.50;;;;;;5014278;28;25070;-81
2023/09/20 11:56:05;;;;;;;;;;;22.10;66.70;;;;;;5012986;28;25131;-81
2023/09/20 11:58:36;;;;;;;;;;;22.20;66.50;;;;;;5022698;28;25063;-79
2023/09/20 12:01:08;;;;;;;;;;;22.30;66.80;;;;;;5008649;28;25178;-81
2023/09/20 12:03:35;;;;;;;;;;;22.30;66.70;;;;;;5015629;28;25085;-82
2023/09/20 12:06:03;;;;;;;;;;;22.40;66.20;;;;;;4993558;28;25066;-80
2023/09/20 12:08:34;;;;;;;;;;;22.40;65.10;;;;;;5009345;28;25081;-83
2023/09/20 12:11:01;;;;;;;;;;;22.50;65.10;;;;;;5014088;28;20603;-81
2023/09/20 12:13:28;;;;;;;;;;;22.60;65.40;;;;;;5022047;28;25061;-81
2023/09/20 12:15:54;;;;;;;;;;;22.60;65.20;;;;;;5016275;28;20638;-82
2023/09/20 12:18:25;;;;;;;;;;;22.70;65.00;;;;;;5010836;28;25055;-82
2023/09/20 12:20:51;;;;;;;;;;;22.70;63.80;;;;;;5020028;28;25062;-81
2023/09/20 12:23:18;;;;;;;;;;;23.10;63.10;;;;;;5030719;28;25067;-83
2023/09/20 12:25:45;;;;;;;;;;;23.40;62.30;;;;;;5068500;28;19932;-83
2023/09/20 12:28:12;;;;;;;;;;;23.60;61.80;;;;;;5065561;28;19929;-82
2023/09/20 12:30:39;;;;;;;;;;;23.80;61.30;;;;;;5048766;28;19964;-83
2023/09/20 12:33:07;;;;;;;;;;;24.00;60.10;;;;;;5049367;28;20632;-80
2023/09/20 12:35:45;;;;;;;;;;;24.30;59.80;;;;;;5069247;28;21001;-79
2023/09/20 12:38:11;;;;;;;;;;;24.40;59.50;;;;;;5053683;28;20492;-79
2023/09/20 12:40:41;;;;;;;;;;;24.60;59.10;;;;;;5055898;28;19935;-80
2023/09/20 12:43:07;;;;;;;;;;;24.70;59.00;;;;;;5054848;28;19950;-80
2023/09/20 12:45:38;;;;;;;;;;;24.80;58.80;;;;;;5073325;28;19929;-80
2023/09/20 12:48:07;;;;;;;;;;;24.90;58.60;;;;;;5067806;28;19936;-80
2023/09/20 12:50:36;;;;;;;;;;;25.00;58.50;;;;;;5074448;28;20460;-79
2023/09/20 12:53:04;;;;;;;;;;;25.10;58.40;;;;;;5066130;28;20525;-79
2023/09/20 12:55:31;;;;;;;;;;;25.20;55.60;;;;;;5066883;28;20686;-77
2023/09/20 12:57:59;;;;;;;;;;;25.30;57.40;;;;;;5063583;28;20458;-78
2023/09/20 13:00:26;;;;;;;;;;;25.20;57.20;;;;;;5062622;28;19933;-79
2023/09/20 13:02:53;;;;;;;;;;;25.10;58.30;;;;;;5044883;28;20379;-78
2023/09/20 13:05:21;;;;;;;;;;;25.10;58.40;;;;;;5065886;28;19928;-78
2023/09/20 13:08:01;;;;;;;;;;;24.90;58.60;;;;;;5075118;28;20039;-76
2023/09/20 13:10:31;;;;;;;;;;;24.90;57.60;;;;;;5066867;28;19928;-78
2023/09/20 13:12:58;;;;;;;;;;;24.80;58.20;;;;;;5062736;28;19932;-78
2023/09/20 13:15:24;;;;;;;;;;;24.70;58.50;;;;;;5071987;28;19928;-78
2023/09/20 13:17:51;;;;;;;;;;;24.70;59.00;;;;;;5069016;28;19940;-77
2023/09/20 13:20:19;;;;;;;;;;;24.70;58.70;;;;;;5068906;28;19928;-78
2023/09/20 13:22:47;;;;;;;;;;;24.70;58.90;;;;;;5054623;28;19928;-78
2023/09/20 13:25:19;;;;;;;;;;;24.60;59.60;;;;;;5075072;28;19932;-76
2023/09/20 13:27:45;;;;;;;;;;;24.70;59.40;;;;;;5058403;28;20407;-77
2023/09/20 13:30:13;;;;;;;;;;;25.10;56.50;;;;;;5065556;28;19928;-77
2023/09/20 13:32:40;;;;;;;;;;;25.30;56.70;;;;;;5065306;28;20011;-75
2023/09/20 13:35:10;;;;;;;;;;;25.50;56.70;;;;;;5064759;28;19935;-76
2023/09/20 13:37:39;;;;;;;;;;;25.70;56.60;;;;;;5059971;28;19933;-77
2023/09/20 13:40:12;;;;;;;;;;;25.80;56.30;;;;;;5062062;28;19928;-74
2023/09/20 13:42:42;;;;;;;;;;;26.00;56.30;;;;;;5066586;28;19936;-77
2023/09/20 13:45:09;;;;;;;;;;;26.10;56.20;;;;;;5059812;28;20625;-76
2023/09/20 13:47:37;;;;;;;;;;;26.20;55.90;;;;;;5058964;28;20327;-76
2023/09/20 13:50:07;;;;;;;;;;;26.30;55.80;;;;;;5060011;28;19959;-76
2023/09/20 13:52:33;;;;;;;;;;;26.40;55.80;;;;;;5075613;28;19940;-77
2023/09/20 13:55:04;;;;;;;;;;;26.40;55.40;;;;;;5044946;28;19936;-77
2023/09/20 13:57:31;;;;;;;;;;;26.50;55.60;;;;;;5061835;28;20030;-78
2023/09/20 14:00:03;;;;;;;;;;;26.60;55.60;;;;;;5057111;28;19929;-78
2023/09/20 14:02:30;;;;;;;;;;;26.60;55.50;;;;;;5059140;28;19940;-78
2023/09/20 14:04:56;;;;;;;;;;;26.70;55.70;;;;;;5053476;28;19928;-78
2023/09/20 14:07:23;;;;;;;;;;;26.70;55.70;;;;;;5058524;28;19928;-77
2023/09/20 14:09:50;;;;;;;;;;;26.70;55.60;;;;;;5057279;28;20665;-79
2023/09/20 14:12:16;;;;;;;;;;;26.80;55.70;;;;;;5059370;28;19935;-77
2023/09/20 14:14:43;;;;;;;;;;;26.80;55.80;;;;;;5059592;28;19935;-77
2023/09/20 14:17:14;;;;;;;;;;;26.80;55.70;;;;;;5058772;28;21185;-78
2023/09/20 14:19:41;;;;;;;;;;;26.90;55.70;;;;;;5044781;28;20194;-79
2023/09/20 14:22:23;;;;;;;;;;;26.90;55.80;;;;;;5045186;28;19928;-78
2023/09/20 14:24:52;;;;;;;;;;;27.00;55.70;;;;;;5064532;28;19928;-77
2023/09/20 14:27:18;;;;;;;;;;;27.00;55.60;;;;;;5062658;28;20400;-78
2023/09/20 14:29:45;;;;;;;;;;;27.00;55.60;;;;;;5061650;28;19928;-78
2023/09/20 14:32:13;;;;;;;;;;;27.10;55.60;;;;;;5058597;28;19969;-78
2023/09/20 14:34:40;;;;;;;;;;;27.10;55.70;;;;;;5063234;28;19928;-78
2023/09/20 14:37:06;;;;;;;;;;;27.10;55.50;;;;;;5061486;28;19933;-78
2023/09/20 14:39:33;;;;;;;;;;;27.10;55.40;;;;;;5043493;28;20036;-78
2023/09/20 14:42:02;;;;;;;;;;;27.10;55.60;;;;;;5059715;28;19932;-79
2023/09/20 14:44:29;;;;;;;;;;;27.10;55.40;;;;;;5066649;28;20300;-78
2023/09/20 14:47:00;;;;;;;;;;;27.10;55.20;;;;;;5062277;28;19975;-76
2023/09/20 14:49:29;;;;;;;;;;;27.10;55.40;;;;;;5063494;28;19942;-77
2023/09/20 14:51:55;;;;;;;;;;;27.10;55.40;;;;;;5063682;28;20446;-78
2023/09/20 14:54:22;;;;;;;;;;;27.00;55.40;;;;;;5064833;28;19936;-77
2023/09/20 14:56:49;;;;;;;;;;;27.00;55.60;;;;;;5054751;28;19935;-78
2023/09/20 14:59:16;;;;;;;;;;;27.00;55.70;;;;;;5065861;28;20322;-77
2023/09/20 15:01:42;;;;;;;;;;;27.00;55.80;;;;;;5043581;28;19939;-78
2023/09/20 15:04:09;;;;;;;;;;;27.00;55.90;;;;;;5057686;28;19951;-77
2023/09/20 15:06:38;;;;;;;;;;;26.90;56.00;;;;;;5060629;28;19928;-78